Aviation Digital Data Service (ADDS)

Output produced by METARs form (2218 UTC 10 December 2016)
found at http://aviationweather.gov/adds/metars/
 
KSBY 101722Z 1018/1118 29009KT P6SM SKC 
     FM102300 30005KT P6SM SCT250 
     FM111100 VRB03KT P6SM BKN100 
     FM111500 07005KT P6SM SCT250